Middletown Regional/Hook Field (MWO)

 

Airport Diagram
No Airport Diagram Available
Current Weather/Forecast (VFR Conditions)
METAR KMWO 091355Z AUTO 09011KT 10SM TSRA OVC034 08/06 A2979 RMK AO2 LTG DSNT ALQDS T00820064
TAF

Airport Information

All Charts
General
Chart Name View
TAKEOFF MINIMUMS
ALTERNATE MINIMUMS

Arrivals
Chart Name Download
DANEI THREE

Approaches
Chart Name Download
RNAV (GPS) RWY 05
RNAV (GPS) RWY 23
LOC RWY 23


Airport Statistics
Departures Arrivals Local
All Collected Stats since June 2016: 3 3 0
2021 Stats: 2 2 0
May Stats: 0 0 0

Inbound Traffic (Arrivals) - 0

No inbound traffic.


Outbound Traffic (Departures) - 0

No outbound traffic.


Local Traffic (Pattern) - 0

No local traffic.